createdAt,value
2024-02-29T00:00:05.924Z,96161.84
2024-02-29T00:02:51.143Z,96154.53
2024-02-29T00:05:37.736Z,96157.00
2024-02-29T00:08:23.064Z,96159.75
2024-02-29T00:11:08.361Z,96160.00
2024-02-29T00:13:53.958Z,96155.63
2024-02-29T00:16:40.735Z,96153.59
2024-02-29T00:19:25.874Z,96155.72
2024-02-29T00:22:11.430Z,96149.22
2024-02-29T00:24:56.878Z,96147.59
2024-02-29T00:27:42.312Z,96150.69
2024-02-29T00:30:27.667Z,96156.59
2024-02-29T00:33:12.998Z,96152.97
2024-02-29T00:36:08.902Z,96148.97
2024-02-29T00:39:05.724Z,96145.31
2024-02-29T00:41:56.964Z,96146.31
2024-02-29T00:44:42.437Z,96151.84
2024-02-29T00:47:27.904Z,96149.81
2024-02-29T00:50:13.656Z,96150.13
2024-02-29T00:52:58.669Z,96157.66
2024-02-29T00:55:44.617Z,96153.22
2024-02-29T00:58:29.854Z,96152.84
2024-02-29T01:01:15.341Z,96157.13
2024-02-29T01:04:00.689Z,96147.81
2024-02-29T01:06:46.050Z,96150.19
2024-02-29T01:09:31.430Z,96153.22
2024-02-29T01:12:16.860Z,96146.31
2024-02-29T01:15:02.111Z,96144.47
2024-02-29T01:17:50.637Z,96142.28
2024-02-29T01:20:36.983Z,96143.69
2024-02-29T01:23:22.370Z,96142.28
2024-02-29T01:26:08.082Z,96141.75
2024-02-29T01:28:53.426Z,96146.66
2024-02-29T01:31:38.902Z,96145.81
2024-02-29T01:34:24.369Z,96140.16
2024-02-29T01:37:09.828Z,96144.81
2024-02-29T01:39:55.181Z,96138.03
2024-02-29T01:42:43.797Z,96137.28
2024-02-29T01:45:29.690Z,96133.66
2024-02-29T01:48:15.478Z,96138.72
2024-02-29T01:51:00.629Z,96138.91
2024-02-29T01:53:46.290Z,96136.28
2024-02-29T01:56:31.813Z,96153.16
2024-02-29T01:59:18.344Z,96145.50
2024-02-29T02:02:03.672Z,96150.34
2024-02-29T02:04:48.967Z,96150.00
2024-02-29T02:07:36.710Z,96139.44
2024-02-29T02:10:22.903Z,96149.16
2024-02-29T02:13:09.019Z,96143.44
2024-02-29T02:15:54.861Z,96137.44
2024-02-29T02:18:40.291Z,96136.78
2024-02-29T02:21:25.622Z,96139.06
2024-02-29T02:24:11.049Z,96131.06
2024-02-29T02:26:56.686Z,96137.44
2024-02-29T02:29:41.930Z,96133.41
2024-02-29T02:32:27.349Z,96127.22
2024-02-29T02:35:12.912Z,96130.50
2024-02-29T02:37:58.062Z,96129.78
2024-02-29T02:40:43.607Z,96132.56
2024-02-29T02:43:29.183Z,96134.22
2024-02-29T02:46:14.763Z,96138.47
2024-02-29T02:49:00.191Z,96134.16
2024-02-29T02:51:45.914Z,96135.34
2024-02-29T02:54:31.198Z,96140.47
2024-02-29T02:57:17.068Z,96134.00
2024-02-29T03:00:02.445Z,96134.25
2024-02-29T03:02:47.933Z,96133.53
2024-02-29T03:05:33.285Z,96129.50
2024-02-29T03:08:18.771Z,96136.03
2024-02-29T03:11:04.525Z,96133.78
2024-02-29T03:13:50.025Z,96138.03
2024-02-29T03:16:35.742Z,96143.94
2024-02-29T03:19:20.826Z,96137.13
2024-02-29T03:22:06.153Z,96134.91
2024-02-29T03:24:53.339Z,96135.31
2024-02-29T03:27:38.979Z,96135.56
2024-02-29T03:30:24.401Z,96138.00
2024-02-29T03:33:10.718Z,96133.50
2024-02-29T03:35:56.239Z,96133.16
2024-02-29T03:38:41.741Z,96138.00
2024-02-29T03:41:27.811Z,96142.44
2024-02-29T03:44:12.935Z,96137.41
2024-02-29T03:46:58.350Z,96133.16
2024-02-29T03:49:43.663Z,96127.50
2024-02-29T03:52:29.070Z,96136.00
2024-02-29T03:55:14.827Z,96138.44
2024-02-29T03:58:00.360Z,96139.25
2024-02-29T04:00:45.664Z,96136.44
2024-02-29T04:03:31.117Z,96138.44
2024-02-29T04:06:16.544Z,96138.00
2024-02-29T04:09:02.734Z,96135.16
2024-02-29T04:11:47.954Z,96134.16
2024-02-29T04:14:35.171Z,96131.50
2024-02-29T04:17:20.585Z,96135.81
2024-02-29T04:20:07.011Z,96132.34
2024-02-29T04:22:52.128Z,96137.63
2024-02-29T04:25:38.280Z,96132.09
2024-02-29T04:28:23.751Z,96130.28
2024-02-29T04:31:10.200Z,96137.16
2024-02-29T04:33:55.650Z,96134.34
2024-02-29T04:36:41.041Z,96136.28
2024-02-29T04:39:26.528Z,96132.66
2024-02-29T04:42:11.972Z,96132.28
2024-02-29T04:44:57.524Z,96144.06
2024-02-29T04:47:43.168Z,96135.16
2024-02-29T04:50:28.590Z,96136.78
2024-02-29T04:53:15.381Z,96142.91
2024-02-29T04:56:01.828Z,96143.91
2024-02-29T04:58:47.029Z,96143.47
2024-02-29T05:01:33.433Z,96146.34
2024-02-29T05:04:18.707Z,96149.63
2024-02-29T05:07:05.211Z,96143.16
2024-02-29T05:09:50.654Z,96144.34
2024-02-29T05:12:36.112Z,96149.44
2024-02-29T05:15:22.290Z,96143.97
2024-02-29T05:18:08.375Z,96146.41
2024-02-29T05:20:53.973Z,96148.66
2024-02-29T05:23:39.445Z,96142.56
2024-02-29T05:26:24.868Z,96144.22
2024-02-29T05:29:10.244Z,96142.56
2024-02-29T05:31:55.832Z,96144.16
2024-02-29T05:34:41.013Z,96154.91
2024-02-29T05:37:26.551Z,96155.16
2024-02-29T05:40:14.110Z,96156.34
2024-02-29T05:42:59.225Z,96156.78
2024-02-29T05:45:44.979Z,96161.03
2024-02-29T05:48:35.783Z,96161.44
2024-02-29T05:51:21.357Z,96159.63
2024-02-29T05:54:06.957Z,96159.16
2024-02-29T05:56:51.952Z,96153.88
2024-02-29T05:59:37.542Z,96157.41
2024-02-29T06:02:22.716Z,96154.78
2024-02-29T06:05:09.071Z,96163.34
2024-02-29T06:07:54.927Z,96154.78
2024-02-29T06:10:40.062Z,96156.16
2024-02-29T06:13:29.965Z,96146.59
2024-02-29T06:16:15.642Z,96153.50
2024-02-29T06:19:01.206Z,96156.41
2024-02-29T06:21:47.102Z,96148.28
2024-02-29T06:24:32.375Z,96154.84
2024-02-29T06:27:18.592Z,96155.91
2024-02-29T06:30:05.432Z,96160.63
2024-02-29T06:32:50.701Z,96158.78
2024-02-29T06:35:36.024Z,96161.63
2024-02-29T06:38:21.972Z,96166.34
2024-02-29T06:41:10.434Z,96169.81
2024-02-29T06:43:55.584Z,96167.94
2024-02-29T06:46:40.925Z,96168.34
2024-02-29T06:49:26.316Z,96160.81
2024-02-29T06:52:11.764Z,96168.72
2024-02-29T06:54:57.346Z,96160.66
2024-02-29T06:57:43.464Z,96163.56
2024-02-29T07:00:28.672Z,96158.84
2024-02-29T07:03:13.895Z,96166.81
2024-02-29T07:05:59.519Z,96161.97
2024-02-29T07:08:44.986Z,96154.31
2024-02-29T07:11:31.953Z,96168.22
2024-02-29T07:14:17.787Z,96161.03
2024-02-29T07:17:02.917Z,96160.06
2024-02-29T07:19:48.338Z,96159.22
2024-02-29T07:22:33.511Z,96160.88
2024-02-29T07:25:18.739Z,96153.56
2024-02-29T07:28:04.690Z,96156.63
2024-02-29T07:30:50.414Z,96147.53
2024-02-29T07:33:36.584Z,96151.59
2024-02-29T07:36:22.922Z,96144.47
2024-02-29T07:39:08.722Z,96145.75
2024-02-29T07:41:54.237Z,96134.97
2024-02-29T07:44:39.575Z,96149.44
2024-02-29T07:47:24.848Z,96141.75
2024-02-29T07:50:11.004Z,96143.63
2024-02-29T07:52:56.215Z,96143.22
2024-02-29T07:55:41.687Z,96144.88
2024-02-29T07:58:27.580Z,96147.75
2024-02-29T08:01:12.964Z,96135.97
2024-02-29T08:03:59.695Z,96142.94
2024-02-29T08:06:45.194Z,96137.88
2024-02-29T08:09:30.631Z,96131.00
2024-02-29T08:12:15.996Z,96133.25
2024-02-29T08:15:01.405Z,96130.44
2024-02-29T08:17:47.898Z,96125.34
2024-02-29T08:20:33.213Z,96125.59
2024-02-29T08:23:18.651Z,96124.00
2024-02-29T08:26:11.046Z,96111.22
2024-02-29T08:28:56.472Z,96113.88
2024-02-29T08:31:42.866Z,96114.31
2024-02-29T08:34:28.525Z,96106.63
2024-02-29T08:37:14.107Z,96109.72
2024-02-29T08:39:59.528Z,96104.63
2024-02-29T08:42:44.915Z,96094.22
2024-02-29T08:45:30.667Z,96100.75
2024-02-29T08:48:15.879Z,96101.00
2024-02-29T08:51:01.285Z,96101.41
2024-02-29T08:53:47.030Z,96102.22
2024-02-29T08:56:32.322Z,96098.94
2024-02-29T08:59:18.717Z,96095.69
2024-02-29T09:02:05.697Z,96095.03
2024-02-29T09:04:51.621Z,96089.72
2024-02-29T09:07:37.376Z,96088.69
2024-02-29T09:10:23.163Z,96090.50
2024-02-29T09:13:20.464Z,96094.97
2024-02-29T09:16:14.065Z,96085.78
2024-02-29T09:19:02.632Z,96086.94
2024-02-29T09:21:49.359Z,96091.84
2024-02-29T09:24:34.642Z,96078.09
2024-02-29T09:27:20.443Z,96074.38
2024-02-29T09:30:06.934Z,96081.06
2024-02-29T09:32:54.060Z,96078.38
2024-02-29T09:35:39.621Z,96064.84
2024-02-29T09:38:26.081Z,96066.22
2024-02-29T09:44:05.256Z,96055.94
2024-02-29T09:46:51.689Z,96054.84
2024-02-29T09:49:37.102Z,96054.78
2024-02-29T09:52:26.379Z,96047.13
2024-02-29T09:55:16.610Z,96050.72
2024-02-29T09:58:03.007Z,96044.94
2024-02-29T10:00:49.154Z,96042.81
2024-02-29T10:03:34.661Z,96042.28
2024-02-29T10:06:20.522Z,96045.41
2024-02-29T10:09:06.003Z,96040.16
2024-02-29T10:11:54.455Z,96042.09
2024-02-29T10:14:39.724Z,96028.25
2024-02-29T10:17:25.701Z,96027.75
2024-02-29T10:20:14.333Z,96023.75
2024-02-29T10:22:59.876Z,96021.13
2024-02-29T10:25:49.494Z,96023.06
2024-02-29T10:28:34.912Z,96025.97
2024-02-29T10:31:20.391Z,96014.34
2024-02-29T10:34:05.858Z,96017.25
2024-02-29T10:36:51.551Z,96013.22
2024-02-29T10:39:39.690Z,95999.56
2024-02-29T10:42:25.428Z,96003.97
2024-02-29T10:45:15.324Z,96005.75
2024-02-29T10:48:38.694Z,95993.09
2024-02-29T10:51:42.290Z,95996.56
2024-02-29T10:54:43.397Z,95989.88
2024-02-29T10:57:43.752Z,95980.94
2024-02-29T11:00:29.250Z,95976.31
2024-02-29T11:03:14.660Z,95975.16
2024-02-29T11:06:01.884Z,95978.03
2024-02-29T11:08:47.878Z,95972.56
2024-02-29T11:11:33.044Z,95969.44
2024-02-29T11:14:21.608Z,95960.03
2024-02-29T11:17:06.973Z,95957.78
2024-02-29T11:20:08.407Z,95955.66
2024-02-29T11:23:10.517Z,95949.94
2024-02-29T11:25:58.318Z,95947.13
2024-02-29T11:28:43.868Z,95953.97
2024-02-29T11:31:28.967Z,95946.53
2024-02-29T11:34:17.594Z,95932.94
2024-02-29T11:37:06.337Z,95931.16
2024-02-29T11:39:52.225Z,95931.91
2024-02-29T11:42:39.454Z,95924.00
2024-02-29T11:45:27.021Z,95925.63
2024-02-29T11:48:12.478Z,95921.03
2024-02-29T11:50:57.831Z,95916.34
2024-02-29T11:53:44.822Z,95916.50
2024-02-29T11:56:31.252Z,95913.41
2024-02-29T11:59:19.591Z,95914.06
2024-02-29T12:02:07.030Z,95910.97
2024-02-29T12:04:52.888Z,95905.94
2024-02-29T12:07:38.494Z,95907.16
2024-02-29T12:10:24.988Z,95903.25
2024-02-29T12:13:10.693Z,95900.41
2024-02-29T12:15:57.194Z,95908.19
2024-02-29T12:18:42.997Z,95900.41
2024-02-29T12:21:28.546Z,95898.59
2024-02-29T12:24:14.524Z,95898.19
2024-02-29T12:27:00.291Z,95897.44
2024-02-29T12:29:45.739Z,95889.22
2024-02-29T12:32:30.988Z,95887.25
2024-02-29T12:35:17.701Z,95878.72
2024-02-29T12:38:04.478Z,95883.41
2024-02-29T12:40:53.073Z,95878.91
2024-02-29T12:43:39.950Z,95875.44
2024-02-29T12:46:26.340Z,95877.88
2024-02-29T12:49:12.129Z,95874.38
2024-02-29T12:51:57.912Z,95878.34
2024-02-29T12:54:43.519Z,95875.91
2024-02-29T12:57:28.705Z,95866.03
2024-02-29T13:00:21.109Z,95868.25
2024-02-29T13:03:08.901Z,95874.22
2024-02-29T13:05:55.397Z,95863.31
2024-02-29T13:08:40.714Z,95857.16
2024-02-29T13:11:26.095Z,95871.28
2024-02-29T13:14:11.681Z,95858.16
2024-02-29T13:16:57.559Z,95862.41
2024-02-29T13:19:42.781Z,95845.38
2024-02-29T13:22:28.435Z,95850.28
2024-02-29T13:43:41.114Z,95832.25
2024-02-29T13:46:29.785Z,95832.41
2024-02-29T13:49:21.654Z,95830.59
2024-02-29T13:52:08.616Z,95831.16
2024-02-29T13:54:53.938Z,95818.41
2024-02-29T13:57:40.363Z,95827.25
2024-02-29T14:00:26.018Z,95830.97
2024-02-29T14:03:12.805Z,95841.16
2024-02-29T14:05:58.164Z,95836.41
2024-02-29T14:08:43.970Z,95830.34
2024-02-29T14:11:29.617Z,95827.53
2024-02-29T14:14:15.481Z,95828.59
2024-02-29T14:17:02.121Z,95845.13
2024-02-29T14:19:47.380Z,95837.97
2024-02-29T14:22:33.661Z,95834.50
2024-02-29T14:25:19.601Z,95829.97
2024-02-29T14:28:05.284Z,95822.00
2024-02-29T14:30:50.384Z,95826.06
2024-02-29T14:33:36.162Z,95825.66
2024-02-29T14:36:21.884Z,95825.16
2024-02-29T14:39:12.891Z,95836.72
2024-02-29T14:41:58.589Z,95825.72
2024-02-29T14:44:44.007Z,95823.91
2024-02-29T14:47:30.198Z,95837.22
2024-02-29T14:50:15.497Z,95831.88
2024-02-29T14:53:01.049Z,95830.56
2024-02-29T14:55:46.635Z,95834.88
2024-02-29T14:58:32.109Z,95833.47
2024-02-29T15:01:17.822Z,95827.19
2024-02-29T15:04:03.009Z,95824.75
2024-02-29T15:06:48.454Z,95829.78
2024-02-29T15:09:33.932Z,95819.34
2024-02-29T15:12:19.297Z,95819.28
2024-02-29T15:15:05.307Z,95818.41
2024-02-29T15:17:50.853Z,95816.72
2024-02-29T15:20:36.352Z,95819.34
2024-02-29T15:23:21.853Z,95812.03
2024-02-29T15:26:11.622Z,95813.88
2024-02-29T15:28:56.627Z,95818.53
2024-02-29T15:31:43.272Z,95821.06
2024-02-29T15:34:28.804Z,95816.69
2024-02-29T15:37:14.138Z,95820.84
2024-02-29T15:40:00.702Z,95813.22
2024-02-29T15:42:45.747Z,95814.47
2024-02-29T15:45:31.095Z,95807.91
2024-02-29T15:48:16.485Z,95813.44
2024-02-29T15:51:02.194Z,95813.00
2024-02-29T15:53:47.782Z,95812.59
2024-02-29T15:56:33.055Z,95816.69
2024-02-29T15:59:18.491Z,95804.81
2024-02-29T16:02:04.123Z,95802.31
2024-02-29T16:04:49.534Z,95811.28
2024-02-29T16:07:34.776Z,95809.81
2024-02-29T16:10:20.146Z,95809.84
2024-02-29T16:13:05.987Z,95814.44
2024-02-29T16:15:51.441Z,95810.78
2024-02-29T16:18:37.033Z,95807.94
2024-02-29T16:21:22.339Z,95808.78
2024-02-29T16:24:07.967Z,95812.25
2024-02-29T16:26:56.454Z,95817.41
2024-02-29T16:29:41.735Z,95816.13
2024-02-29T16:32:27.049Z,95815.91
2024-02-29T16:35:12.928Z,95826.13
2024-02-29T16:37:59.611Z,95815.03
2024-02-29T16:40:45.649Z,95812.59
2024-02-29T16:43:31.098Z,95825.66
2024-02-29T16:46:17.952Z,95817.44
2024-02-29T16:49:03.153Z,95817.19
2024-02-29T16:51:48.501Z,95815.34
2024-02-29T16:54:33.705Z,95819.03
2024-02-29T16:57:19.384Z,95816.09
2024-02-29T17:00:05.259Z,95822.78
2024-02-29T17:02:50.768Z,95824.94
2024-02-29T17:05:35.836Z,95820.06
2024-02-29T17:08:21.303Z,95823.28
2024-02-29T17:11:06.912Z,95824.63
2024-02-29T17:13:52.779Z,95826.78
2024-02-29T17:16:38.563Z,95825.69
2024-02-29T17:19:24.176Z,95822.50
2024-02-29T17:22:09.594Z,95823.88
2024-02-29T17:24:58.840Z,95820.72
2024-02-29T17:27:44.326Z,95814.66
2024-02-29T17:30:29.699Z,95816.34
2024-02-29T17:33:15.034Z,95805.19
2024-02-29T17:36:00.090Z,95804.47
2024-02-29T17:38:45.720Z,95801.06
2024-02-29T17:41:31.201Z,95804.81
2024-02-29T17:44:20.172Z,95807.72
2024-02-29T17:47:05.868Z,95809.66
2024-02-29T17:49:50.891Z,95802.56
2024-02-29T17:52:36.152Z,95802.63
2024-02-29T17:55:21.608Z,95805.94
2024-02-29T17:58:06.661Z,95811.66
2024-02-29T18:00:52.254Z,95801.09
2024-02-29T18:03:37.471Z,95807.31
2024-02-29T18:06:23.006Z,95803.28
2024-02-29T18:09:11.433Z,95808.66
2024-02-29T18:11:56.613Z,95796.44
2024-02-29T18:14:41.763Z,95794.69
2024-02-29T18:17:27.276Z,95800.03
2024-02-29T18:20:15.620Z,95795.38
2024-02-29T18:23:00.777Z,95793.13
2024-02-29T18:25:47.483Z,95786.66
2024-02-29T18:28:32.766Z,95778.75
2024-02-29T18:34:24.971Z,95782.50
2024-02-29T18:37:10.565Z,95779.31
2024-02-29T18:39:55.924Z,95774.06
2024-02-29T18:42:41.797Z,95766.94
2024-02-29T18:45:26.976Z,95774.09
2024-02-29T18:48:12.820Z,95769.63
2024-02-29T18:50:58.272Z,95768.84
2024-02-29T18:53:43.665Z,95767.84
2024-02-29T18:56:28.709Z,95758.72
2024-02-29T18:59:15.458Z,95768.53
2024-02-29T19:02:02.930Z,95770.56
2024-02-29T19:04:52.594Z,95768.59
2024-02-29T19:07:38.199Z,95762.31
2024-02-29T19:10:24.288Z,95765.38
2024-02-29T19:13:09.528Z,95767.88
2024-02-29T19:15:54.916Z,95766.47
2024-02-29T19:18:41.829Z,95775.66
2024-02-29T19:21:26.936Z,95763.03
2024-02-29T19:24:12.638Z,95761.66
2024-02-29T19:26:58.122Z,95766.28
2024-02-29T19:29:43.613Z,95772.63
2024-02-29T19:32:28.634Z,95761.84
2024-02-29T19:35:13.947Z,95770.38
2024-02-29T19:37:59.368Z,95772.81
2024-02-29T19:40:44.470Z,95769.16
2024-02-29T19:43:29.921Z,95770.38
2024-02-29T19:46:15.061Z,95767.53
2024-02-29T19:49:00.859Z,95765.13
2024-02-29T19:51:46.121Z,95768.16
2024-02-29T19:54:31.218Z,95768.97
2024-02-29T19:57:16.161Z,95771.41
2024-02-29T20:00:01.552Z,95763.50
2024-02-29T20:02:46.753Z,95765.72
2024-02-29T20:05:32.009Z,95767.13
2024-02-29T20:08:17.245Z,95767.13
2024-02-29T20:11:02.689Z,95763.50
2024-02-29T20:13:48.842Z,95768.38
2024-02-29T20:16:34.509Z,95759.41
2024-02-29T20:19:19.904Z,95761.66
2024-02-29T20:22:05.248Z,95759.22
2024-02-29T20:24:51.264Z,95750.47
2024-02-29T20:27:37.255Z,95746.19
2024-02-29T20:30:23.614Z,95745.59
2024-02-29T20:33:09.086Z,95750.91
2024-02-29T20:35:54.294Z,95742.34
2024-02-29T20:38:39.718Z,95734.84
2024-02-29T20:41:25.958Z,95737.88
2024-02-29T20:44:11.281Z,95736.47
2024-02-29T20:46:56.674Z,95728.13
2024-02-29T20:49:43.417Z,95731.16
2024-02-29T20:52:28.778Z,95720.81
2024-02-29T20:55:14.578Z,95714.69
2024-02-29T20:57:59.719Z,95709.41
2024-02-29T21:00:45.184Z,95714.28
2024-02-29T21:03:30.428Z,95698.44
2024-02-29T21:06:16.645Z,95706.16
2024-02-29T21:09:01.784Z,95704.09
2024-02-29T21:11:47.571Z,95701.22
2024-02-29T21:14:32.880Z,95695.94
2024-02-29T21:17:18.056Z,95699.00
2024-02-29T21:20:03.755Z,95695.16
2024-02-29T21:22:49.286Z,95697.19
2024-02-29T21:25:34.955Z,95688.44
2024-02-29T21:28:20.566Z,95684.38
2024-02-29T21:31:05.644Z,95686.22
2024-02-29T21:33:50.947Z,95688.84
2024-02-29T21:36:36.161Z,95694.13
2024-02-29T21:39:28.468Z,95687.81
2024-02-29T21:42:22.589Z,95681.53
2024-02-29T21:45:08.898Z,95678.31
2024-02-29T21:47:55.447Z,95679.97
2024-02-29T21:50:41.924Z,95672.03
2024-02-29T21:53:27.414Z,95676.09
2024-02-29T21:56:16.207Z,95668.56
2024-02-29T21:59:01.131Z,95670.78
2024-02-29T22:01:47.825Z,95663.06
2024-02-29T22:04:33.509Z,95661.66
2024-02-29T22:07:18.969Z,95661.88
2024-02-29T22:10:04.582Z,95660.25
2024-02-29T22:12:49.642Z,95662.09
2024-02-29T22:15:35.140Z,95658.00
2024-02-29T22:18:20.556Z,95654.94
2024-02-29T22:21:06.003Z,95647.22
2024-02-29T22:23:51.344Z,95645.22
2024-02-29T22:26:36.656Z,95645.84
2024-02-29T22:29:23.235Z,95644.38
2024-02-29T22:32:08.627Z,95641.09
2024-02-29T22:34:53.977Z,95643.75
2024-02-29T22:37:40.037Z,95635.41
2024-02-29T22:40:26.239Z,95631.38
2024-02-29T22:43:12.763Z,95633.19
2024-02-29T22:45:57.849Z,95636.03
2024-02-29T22:48:43.358Z,95628.53
2024-02-29T22:51:28.512Z,95617.16
2024-02-29T22:54:13.801Z,95617.97
2024-02-29T22:56:59.271Z,95615.91
2024-02-29T22:59:44.539Z,95621.81
2024-02-29T23:02:29.911Z,95626.88
2024-02-29T23:05:15.654Z,95618.78
2024-02-29T23:08:01.192Z,95622.81
2024-02-29T23:10:46.808Z,95619.59
2024-02-29T23:13:32.169Z,95615.91
2024-02-29T23:16:17.728Z,95615.09
2024-02-29T23:19:03.044Z,95616.69
2024-02-29T23:21:48.698Z,95616.28
2024-02-29T23:24:34.412Z,95616.28
2024-02-29T23:27:19.648Z,95615.50
2024-02-29T23:30:09.506Z,95602.09
2024-02-29T23:32:54.581Z,95598.44
2024-02-29T23:35:39.940Z,95588.91
2024-02-29T23:38:25.323Z,95589.53
2024-02-29T23:41:10.727Z,95591.97
2024-02-29T23:43:56.140Z,95584.25
2024-02-29T23:46:42.700Z,95580.19
2024-02-29T23:49:28.093Z,95574.47
2024-02-29T23:52:13.570Z,95576.50
2024-02-29T23:54:58.988Z,95570.03
2024-02-29T23:57:44.726Z,95568.78
